sensor_id;sensor_type;location;lat;lon;timestamp;P1;durP1;ratioP1;P2;durP2;ratioP2
5569;SDS011;2808;51.240;6.794;2023-03-23T00:01:21;5.13;;;2.17;;
5569;SDS011;2808;51.240;6.794;2023-03-23T00:03:52;4.13;;;2.10;;
5569;SDS011;2808;51.240;6.794;2023-03-23T00:06:23;9.60;;;2.10;;
5569;SDS011;2808;51.240;6.794;2023-03-23T00:08:53;5.80;;;2.20;;
5569;SDS011;2808;51.240;6.794;2023-03-23T00:11:26;7.40;;;2.53;;
5569;SDS011;2808;51.240;6.794;2023-03-23T00:13:55;4.40;;;1.90;;
5569;SDS011;2808;51.240;6.794;2023-03-23T00:16:28;6.90;;;2.30;;
5569;SDS011;2808;51.240;6.794;2023-03-23T00:18:58;4.43;;;2.10;;
5569;SDS011;2808;51.240;6.794;2023-03-23T00:21:33;6.30;;;2.23;;
5569;SDS011;2808;51.240;6.794;2023-03-23T00:24:03;5.20;;;2.17;;
5569;SDS011;2808;51.240;6.794;2023-03-23T00:26:32;5.87;;;2.20;;
5569;SDS011;2808;51.240;6.794;2023-03-23T00:29:01;5.30;;;2.07;;
5569;SDS011;2808;51.240;6.794;2023-03-23T00:31:30;5.63;;;2.17;;
5569;SDS011;2808;51.240;6.794;2023-03-23T00:34:00;3.53;;;2.10;;
5569;SDS011;2808;51.240;6.794;2023-03-23T00:36:30;5.33;;;2.03;;
5569;SDS011;2808;51.240;6.794;2023-03-23T00:39:00;6.97;;;2.20;;
5569;SDS011;2808;51.240;6.794;2023-03-23T00:41:31;5.50;;;1.80;;
5569;SDS011;2808;51.240;6.794;2023-03-23T00:44:01;3.87;;;1.90;;
5569;SDS011;2808;51.240;6.794;2023-03-23T00:46:29;4.70;;;2.33;;
5569;SDS011;2808;51.240;6.794;2023-03-23T00:48:56;5.50;;;1.90;;
5569;SDS011;2808;51.240;6.794;2023-03-23T00:51:24;5.30;;;2.03;;
5569;SDS011;2808;51.240;6.794;2023-03-23T00:53:53;6.10;;;1.97;;
5569;SDS011;2808;51.240;6.794;2023-03-23T00:56:20;4.17;;;1.70;;
5569;SDS011;2808;51.240;6.794;2023-03-23T00:58:48;4.03;;;2.00;;
5569;SDS011;2808;51.240;6.794;2023-03-23T01:01:16;4.47;;;2.20;;
5569;SDS011;2808;51.240;6.794;2023-03-23T01:03:43;3.60;;;1.57;;
5569;SDS011;2808;51.240;6.794;2023-03-23T01:06:10;5.40;;;2.43;;
5569;SDS011;2808;51.240;6.794;2023-03-23T01:08:39;5.40;;;2.10;;
5569;SDS011;2808;51.240;6.794;2023-03-23T01:11:12;3.80;;;2.00;;
5569;SDS011;2808;51.240;6.794;2023-03-23T01:13:41;4.73;;;2.23;;
5569;SDS011;2808;51.240;6.794;2023-03-23T01:16:09;3.80;;;2.00;;
5569;SDS011;2808;51.240;6.794;2023-03-23T01:18:37;3.57;;;2.03;;
5569;SDS011;2808;51.240;6.794;2023-03-23T01:21:05;5.07;;;2.20;;
5569;SDS011;2808;51.240;6.794;2023-03-23T01:23:33;3.93;;;2.00;;
5569;SDS011;2808;51.240;6.794;2023-03-23T01:26:04;6.63;;;2.10;;
5569;SDS011;2808;51.240;6.794;2023-03-23T01:28:33;6.77;;;2.60;;
5569;SDS011;2808;51.240;6.794;2023-03-23T01:31:05;4.53;;;1.90;;
5569;SDS011;2808;51.240;6.794;2023-03-23T01:33:33;6.37;;;2.20;;
5569;SDS011;2808;51.240;6.794;2023-03-23T01:36:02;5.60;;;2.17;;
5569;SDS011;2808;51.240;6.794;2023-03-23T01:38:31;4.40;;;1.87;;
5569;SDS011;2808;51.240;6.794;2023-03-23T01:41:02;6.27;;;2.13;;
5569;SDS011;2808;51.240;6.794;2023-03-23T01:43:30;4.20;;;1.93;;
5569;SDS011;2808;51.240;6.794;2023-03-23T01:45:59;5.47;;;2.47;;
5569;SDS011;2808;51.240;6.794;2023-03-23T01:48:27;8.90;;;2.93;;
5569;SDS011;2808;51.240;6.794;2023-03-23T01:50:58;5.77;;;2.30;;
5569;SDS011;2808;51.240;6.794;2023-03-23T01:53:30;7.23;;;2.60;;
5569;SDS011;2808;51.240;6.794;2023-03-23T01:56:01;7.80;;;2.40;;
5569;SDS011;2808;51.240;6.794;2023-03-23T01:58:30;3.67;;;1.87;;
5569;SDS011;2808;51.240;6.794;2023-03-23T02:01:01;5.10;;;2.57;;
5569;SDS011;2808;51.240;6.794;2023-03-23T02:03:31;4.30;;;1.90;;
5569;SDS011;2808;51.240;6.794;2023-03-23T02:06:00;6.97;;;2.70;;
5569;SDS011;2808;51.240;6.794;2023-03-23T02:08:30;5.37;;;2.50;;
5569;SDS011;2808;51.240;6.794;2023-03-23T02:11:00;4.10;;;2.03;;
5569;SDS011;2808;51.240;6.794;2023-03-23T02:13:30;4.97;;;2.50;;
5569;SDS011;2808;51.240;6.794;2023-03-23T02:16:01;4.27;;;2.40;;
5569;SDS011;2808;51.240;6.794;2023-03-23T02:18:46;6.27;;;2.60;;
5569;SDS011;2808;51.240;6.794;2023-03-23T02:21:31;14.60;;;2.70;;
5569;SDS011;2808;51.240;6.794;2023-03-23T02:27:25;8.40;;;2.80;;
5569;SDS011;2808;51.240;6.794;2023-03-23T02:30:11;4.33;;;2.37;;
5569;SDS011;2808;51.240;6.794;2023-03-23T02:33:08;6.40;;;2.30;;
5569;SDS011;2808;51.240;6.794;2023-03-23T02:35:53;4.10;;;2.13;;
5569;SDS011;2808;51.240;6.794;2023-03-23T02:38:25;5.30;;;2.23;;
5569;SDS011;2808;51.240;6.794;2023-03-23T02:40:59;7.60;;;2.50;;
5569;SDS011;2808;51.240;6.794;2023-03-23T02:43:30;5.23;;;2.70;;
5569;SDS011;2808;51.240;6.794;2023-03-23T02:46:01;8.17;;;3.03;;
5569;SDS011;2808;51.240;6.794;2023-03-23T02:48:35;6.10;;;2.27;;
5569;SDS011;2808;51.240;6.794;2023-03-23T02:51:05;6.63;;;2.57;;
5569;SDS011;2808;51.240;6.794;2023-03-23T02:53:34;4.20;;;2.50;;
5569;SDS011;2808;51.240;6.794;2023-03-23T02:56:06;4.10;;;2.33;;
5569;SDS011;2808;51.240;6.794;2023-03-23T02:58:35;5.33;;;2.67;;
5569;SDS011;2808;51.240;6.794;2023-03-23T03:01:44;9.10;;;2.20;;
5569;SDS011;2808;51.240;6.794;2023-03-23T03:04:27;4.97;;;2.40;;
5569;SDS011;2808;51.240;6.794;2023-03-23T03:09:53;5.03;;;2.10;;
5569;SDS011;2808;51.240;6.794;2023-03-23T03:12:28;4.80;;;2.07;;
5569;SDS011;2808;51.240;6.794;2023-03-23T03:15:10;4.50;;;2.37;;
5569;SDS011;2808;51.240;6.794;2023-03-23T03:17:47;3.30;;;1.83;;
5569;SDS011;2808;51.240;6.794;2023-03-23T03:20:22;4.57;;;2.20;;
5569;SDS011;2808;51.240;6.794;2023-03-23T03:22:53;6.13;;;2.10;;
5569;SDS011;2808;51.240;6.794;2023-03-23T03:25:22;5.83;;;2.10;;
5569;SDS011;2808;51.240;6.794;2023-03-23T03:27:52;5.20;;;2.00;;
5569;SDS011;2808;51.240;6.794;2023-03-23T03:30:22;5.97;;;1.97;;
5569;SDS011;2808;51.240;6.794;2023-03-23T03:32:55;12.60;;;2.37;;
5569;SDS011;2808;51.240;6.794;2023-03-23T03:35:26;5.27;;;1.87;;
5569;SDS011;2808;51.240;6.794;2023-03-23T03:37:55;3.90;;;2.10;;
5569;SDS011;2808;51.240;6.794;2023-03-23T03:40:25;8.73;;;2.80;;
5569;SDS011;2808;51.240;6.794;2023-03-23T03:42:52;5.13;;;1.87;;
5569;SDS011;2808;51.240;6.794;2023-03-23T03:45:20;5.13;;;2.00;;
5569;SDS011;2808;51.240;6.794;2023-03-23T03:47:47;6.50;;;2.00;;
5569;SDS011;2808;51.240;6.794;2023-03-23T03:50:15;4.50;;;2.40;;
5569;SDS011;2808;51.240;6.794;2023-03-23T03:52:44;7.60;;;2.00;;
5569;SDS011;2808;51.240;6.794;2023-03-23T03:55:12;4.53;;;2.10;;
5569;SDS011;2808;51.240;6.794;2023-03-23T03:57:40;5.30;;;2.30;;
5569;SDS011;2808;51.240;6.794;2023-03-23T04:00:08;6.23;;;2.20;;
5569;SDS011;2808;51.240;6.794;2023-03-23T04:02:40;4.07;;;2.07;;
5569;SDS011;2808;51.240;6.794;2023-03-23T04:05:09;4.40;;;2.10;;
5569;SDS011;2808;51.240;6.794;2023-03-23T04:07:36;5.63;;;2.10;;
5569;SDS011;2808;51.240;6.794;2023-03-23T04:10:07;3.93;;;2.30;;
5569;SDS011;2808;51.240;6.794;2023-03-23T04:12:37;7.40;;;4.40;;
5569;SDS011;2808;51.240;6.794;2023-03-23T04:15:06;5.73;;;2.47;;
5569;SDS011;2808;51.240;6.794;2023-03-23T04:17:34;6.73;;;2.37;;
5569;SDS011;2808;51.240;6.794;2023-03-23T04:20:03;4.20;;;2.13;;
5569;SDS011;2808;51.240;6.794;2023-03-23T04:22:39;8.73;;;2.10;;
5569;SDS011;2808;51.240;6.794;2023-03-23T04:25:12;4.10;;;2.10;;
5569;SDS011;2808;51.240;6.794;2023-03-23T04:27:40;4.73;;;2.40;;
5569;SDS011;2808;51.240;6.794;2023-03-23T04:30:12;4.23;;;2.00;;
5569;SDS011;2808;51.240;6.794;2023-03-23T04:32:39;7.50;;;2.40;;
5569;SDS011;2808;51.240;6.794;2023-03-23T04:35:08;8.90;;;2.70;;
5569;SDS011;2808;51.240;6.794;2023-03-23T04:37:37;4.77;;;2.10;;
5569;SDS011;2808;51.240;6.794;2023-03-23T04:40:06;8.77;;;2.20;;
5569;SDS011;2808;51.240;6.794;2023-03-23T04:42:38;6.20;;;2.10;;
5569;SDS011;2808;51.240;6.794;2023-03-23T04:45:10;4.30;;;2.10;;
5569;SDS011;2808;51.240;6.794;2023-03-23T04:47:40;6.10;;;2.33;;
5569;SDS011;2808;51.240;6.794;2023-03-23T04:50:18;3.67;;;1.63;;
5569;SDS011;2808;51.240;6.794;2023-03-23T04:52:46;5.70;;;1.90;;
5569;SDS011;2808;51.240;6.794;2023-03-23T04:55:16;8.10;;;2.40;;
5569;SDS011;2808;51.240;6.794;2023-03-23T04:57:47;4.60;;;2.00;;
5569;SDS011;2808;51.240;6.794;2023-03-23T05:00:14;6.37;;;2.43;;
5569;SDS011;2808;51.240;6.794;2023-03-23T05:02:43;4.27;;;1.93;;
5569;SDS011;2808;51.240;6.794;2023-03-23T05:05:11;4.60;;;2.17;;
5569;SDS011;2808;51.240;6.794;2023-03-23T05:07:41;7.23;;;1.90;;
5569;SDS011;2808;51.240;6.794;2023-03-23T05:10:09;6.17;;;2.70;;
5569;SDS011;2808;51.240;6.794;2023-03-23T05:12:38;5.00;;;2.53;;
5569;SDS011;2808;51.240;6.794;2023-03-23T05:15:11;6.67;;;2.67;;
5569;SDS011;2808;51.240;6.794;2023-03-23T05:17:40;8.40;;;3.60;;
5569;SDS011;2808;51.240;6.794;2023-03-23T05:20:10;4.80;;;2.17;;
5569;SDS011;2808;51.240;6.794;2023-03-23T05:22:39;5.80;;;2.10;;
5569;SDS011;2808;51.240;6.794;2023-03-23T05:25:09;5.00;;;1.93;;
5569;SDS011;2808;51.240;6.794;2023-03-23T05:27:36;6.97;;;2.20;;
5569;SDS011;2808;51.240;6.794;2023-03-23T05:30:09;6.17;;;2.07;;
5569;SDS011;2808;51.240;6.794;2023-03-23T05:32:40;5.67;;;2.23;;
5569;SDS011;2808;51.240;6.794;2023-03-23T05:35:15;9.77;;;3.20;;
5569;SDS011;2808;51.240;6.794;2023-03-23T05:37:44;6.80;;;2.37;;
5569;SDS011;2808;51.240;6.794;2023-03-23T05:40:11;6.30;;;1.97;;
5569;SDS011;2808;51.240;6.794;2023-03-23T05:42:39;4.13;;;2.30;;
5569;SDS011;2808;51.240;6.794;2023-03-23T05:45:09;4.20;;;2.07;;
5569;SDS011;2808;51.240;6.794;2023-03-23T05:47:37;4.40;;;2.23;;
5569;SDS011;2808;51.240;6.794;2023-03-23T05:50:06;6.70;;;2.57;;
5569;SDS011;2808;51.240;6.794;2023-03-23T05:52:39;4.87;;;2.23;;
5569;SDS011;2808;51.240;6.794;2023-03-23T05:55:07;5.20;;;2.30;;
5569;SDS011;2808;51.240;6.794;2023-03-23T05:57:35;4.93;;;2.47;;
5569;SDS011;2808;51.240;6.794;2023-03-23T06:00:03;3.60;;;2.00;;
5569;SDS011;2808;51.240;6.794;2023-03-23T06:02:45;4.57;;;2.10;;
5569;SDS011;2808;51.240;6.794;2023-03-23T06:05:13;5.57;;;2.30;;
5569;SDS011;2808;51.240;6.794;2023-03-23T06:07:41;6.33;;;2.20;;
5569;SDS011;2808;51.240;6.794;2023-03-23T06:10:09;4.60;;;2.27;;
5569;SDS011;2808;51.240;6.794;2023-03-23T06:12:36;6.27;;;2.37;;
5569;SDS011;2808;51.240;6.794;2023-03-23T06:15:06;7.00;;;2.30;;
5569;SDS011;2808;51.240;6.794;2023-03-23T06:17:34;8.87;;;2.43;;
5569;SDS011;2808;51.240;6.794;2023-03-23T06:20:04;5.17;;;1.90;;
5569;SDS011;2808;51.240;6.794;2023-03-23T06:22:35;4.90;;;2.10;;
5569;SDS011;2808;51.240;6.794;2023-03-23T06:25:05;11.60;;;2.47;;
5569;SDS011;2808;51.240;6.794;2023-03-23T06:27:45;5.40;;;2.23;;
5569;SDS011;2808;51.240;6.794;2023-03-23T06:30:28;6.50;;;2.30;;
5569;SDS011;2808;51.240;6.794;2023-03-23T06:32:56;8.97;;;2.40;;
5569;SDS011;2808;51.240;6.794;2023-03-23T06:35:31;5.90;;;2.07;;
5569;SDS011;2808;51.240;6.794;2023-03-23T06:38:01;10.43;;;2.57;;
5569;SDS011;2808;51.240;6.794;2023-03-23T06:40:31;6.60;;;2.20;;
5569;SDS011;2808;51.240;6.794;2023-03-23T06:42:59;7.57;;;2.17;;
5569;SDS011;2808;51.240;6.794;2023-03-23T06:45:27;6.97;;;2.00;;
5569;SDS011;2808;51.240;6.794;2023-03-23T06:47:54;6.30;;;2.13;;
5569;SDS011;2808;51.240;6.794;2023-03-23T06:50:22;5.83;;;2.27;;
5569;SDS011;2808;51.240;6.794;2023-03-23T06:52:54;9.53;;;1.80;;
5569;SDS011;2808;51.240;6.794;2023-03-23T06:55:28;7.93;;;2.10;;
5569;SDS011;2808;51.240;6.794;2023-03-23T06:58:03;7.77;;;2.23;;
5569;SDS011;2808;51.240;6.794;2023-03-23T07:00:33;7.70;;;2.57;;
5569;SDS011;2808;51.240;6.794;2023-03-23T07:03:02;6.83;;;2.07;;
5569;SDS011;2808;51.240;6.794;2023-03-23T07:05:32;4.27;;;1.80;;
5569;SDS011;2808;51.240;6.794;2023-03-23T07:08:01;14.40;;;1.70;;
5569;SDS011;2808;51.240;6.794;2023-03-23T07:10:29;8.73;;;1.70;;
5569;SDS011;2808;51.240;6.794;2023-03-23T07:12:57;6.57;;;2.10;;
5569;SDS011;2808;51.240;6.794;2023-03-23T07:15:28;4.97;;;2.00;;
5569;SDS011;2808;51.240;6.794;2023-03-23T07:17:56;7.30;;;2.33;;
5569;SDS011;2808;51.240;6.794;2023-03-23T07:20:28;9.83;;;2.30;;
5569;SDS011;2808;51.240;6.794;2023-03-23T07:22:56;5.30;;;1.50;;
5569;SDS011;2808;51.240;6.794;2023-03-23T07:25:33;4.90;;;1.77;;
5569;SDS011;2808;51.240;6.794;2023-03-23T07:28:02;5.30;;;2.03;;
5569;SDS011;2808;51.240;6.794;2023-03-23T07:33:54;6.73;;;2.00;;
5569;SDS011;2808;51.240;6.794;2023-03-23T07:34:51;5.03;;;1.97;;
5569;SDS011;2808;51.240;6.794;2023-03-23T07:38:05;5.80;;;1.70;;
5569;SDS011;2808;51.240;6.794;2023-03-23T08:03:54;5.73;;;1.50;;
5569;SDS011;2808;51.240;6.794;2023-03-23T08:06:27;5.80;;;2.40;;
5569;SDS011;2808;51.240;6.794;2023-03-23T08:09:12;6.70;;;1.97;;
5569;SDS011;2808;51.240;6.794;2023-03-23T08:11:42;7.30;;;2.20;;
5569;SDS011;2808;51.240;6.794;2023-03-23T08:14:10;4.13;;;1.40;;
5569;SDS011;2808;51.240;6.794;2023-03-23T08:16:48;6.27;;;1.93;;
5569;SDS011;2808;51.240;6.794;2023-03-23T08:19:19;7.63;;;1.73;;
5569;SDS011;2808;51.240;6.794;2023-03-23T08:21:47;5.87;;;1.70;;
5569;SDS011;2808;51.240;6.794;2023-03-23T08:24:15;6.90;;;1.40;;
5569;SDS011;2808;51.240;6.794;2023-03-23T08:26:43;4.80;;;1.80;;
5569;SDS011;2808;51.240;6.794;2023-03-23T08:29:13;4.53;;;1.43;;
5569;SDS011;2808;51.240;6.794;2023-03-23T08:31:41;9.83;;;2.30;;
5569;SDS011;2808;51.240;6.794;2023-03-23T08:34:09;8.87;;;2.63;;
5569;SDS011;2808;51.240;6.794;2023-03-23T08:36:40;7.03;;;2.37;;
5569;SDS011;2808;51.240;6.794;2023-03-23T08:39:11;9.43;;;2.13;;
5569;SDS011;2808;51.240;6.794;2023-03-23T08:41:39;5.43;;;1.77;;
5569;SDS011;2808;51.240;6.794;2023-03-23T08:44:07;9.67;;;1.60;;
5569;SDS011;2808;51.240;6.794;2023-03-23T08:46:34;7.73;;;1.87;;
5569;SDS011;2808;51.240;6.794;2023-03-23T08:49:02;8.47;;;1.87;;
5569;SDS011;2808;51.240;6.794;2023-03-23T08:51:30;13.87;;;1.93;;
5569;SDS011;2808;51.240;6.794;2023-03-23T08:53:59;10.23;;;4.00;;
5569;SDS011;2808;51.240;6.794;2023-03-23T08:56:29;10.77;;;2.10;;
5569;SDS011;2808;51.240;6.794;2023-03-23T08:58:56;9.53;;;2.13;;
5569;SDS011;2808;51.240;6.794;2023-03-23T09:01:24;5.63;;;2.00;;
5569;SDS011;2808;51.240;6.794;2023-03-23T09:03:55;9.20;;;2.30;;
5569;SDS011;2808;51.240;6.794;2023-03-23T09:06:23;8.53;;;2.57;;
5569;SDS011;2808;51.240;6.794;2023-03-23T09:08:52;7.73;;;1.87;;
5569;SDS011;2808;51.240;6.794;2023-03-23T09:11:32;6.07;;;1.60;;
5569;SDS011;2808;51.240;6.794;2023-03-23T09:14:00;7.40;;;2.27;;
5569;SDS011;2808;51.240;6.794;2023-03-23T09:16:28;10.73;;;2.30;;
5569;SDS011;2808;51.240;6.794;2023-03-23T09:18:56;9.43;;;2.00;;
5569;SDS011;2808;51.240;6.794;2023-03-23T09:21:24;7.57;;;2.20;;
5569;SDS011;2808;51.240;6.794;2023-03-23T09:23:55;20.00;;;2.13;;
5569;SDS011;2808;51.240;6.794;2023-03-23T09:26:23;6.63;;;1.87;;
5569;SDS011;2808;51.240;6.794;2023-03-23T09:28:52;8.03;;;1.90;;
5569;SDS011;2808;51.240;6.794;2023-03-23T09:31:21;6.57;;;1.77;;
5569;SDS011;2808;51.240;6.794;2023-03-23T09:33:51;8.00;;;2.10;;
5569;SDS011;2808;51.240;6.794;2023-03-23T09:36:21;5.33;;;1.83;;
5569;SDS011;2808;51.240;6.794;2023-03-23T09:38:50;9.93;;;2.90;;
5569;SDS011;2808;51.240;6.794;2023-03-23T09:41:36;8.13;;;2.40;;
5569;SDS011;2808;51.240;6.794;2023-03-23T09:44:25;8.53;;;1.90;;
5569;SDS011;2808;51.240;6.794;2023-03-23T09:47:05;6.30;;;1.83;;
5569;SDS011;2808;51.240;6.794;2023-03-23T09:49:39;12.53;;;2.20;;
5569;SDS011;2808;51.240;6.794;2023-03-23T09:52:11;14.57;;;1.80;;
5569;SDS011;2808;51.240;6.794;2023-03-23T09:54:43;9.70;;;3.73;;
5569;SDS011;2808;51.240;6.794;2023-03-23T09:57:17;13.47;;;2.70;;
5569;SDS011;2808;51.240;6.794;2023-03-23T09:59:54;8.50;;;1.93;;
5569;SDS011;2808;51.240;6.794;2023-03-23T10:02:27;11.10;;;1.60;;
5569;SDS011;2808;51.240;6.794;2023-03-23T10:05:03;5.87;;;1.30;;
5569;SDS011;2808;51.240;6.794;2023-03-23T10:07:49;5.93;;;1.40;;
5569;SDS011;2808;51.240;6.794;2023-03-23T10:10:19;5.03;;;1.37;;
5569;SDS011;2808;51.240;6.794;2023-03-23T10:12:53;5.17;;;1.20;;
5569;SDS011;2808;51.240;6.794;2023-03-23T10:15:27;5.43;;;1.10;;
5569;SDS011;2808;51.240;6.794;2023-03-23T10:17:59;4.83;;;1.00;;
5569;SDS011;2808;51.240;6.794;2023-03-23T10:20:35;5.27;;;1.33;;
5569;SDS011;2808;51.240;6.794;2023-03-23T10:23:12;4.90;;;1.33;;
5569;SDS011;2808;51.240;6.794;2023-03-23T10:25:51;5.83;;;1.70;;
5569;SDS011;2808;51.240;6.794;2023-03-23T10:28:34;5.20;;;1.20;;
5569;SDS011;2808;51.240;6.794;2023-03-23T10:31:09;3.60;;;1.10;;
5569;SDS011;2808;51.240;6.794;2023-03-23T10:33:44;2.80;;;1.30;;
5569;SDS011;2808;51.240;6.794;2023-03-23T10:36:15;5.63;;;1.80;;
5569;SDS011;2808;51.240;6.794;2023-03-23T10:38:49;3.93;;;1.30;;
5569;SDS011;2808;51.240;6.794;2023-03-23T10:41:26;4.73;;;1.10;;
5569;SDS011;2808;51.240;6.794;2023-03-23T10:43:56;5.30;;;1.27;;
5569;SDS011;2808;51.240;6.794;2023-03-23T10:46:29;6.77;;;1.17;;
5569;SDS011;2808;51.240;6.794;2023-03-23T10:49:03;4.53;;;1.27;;
5569;SDS011;2808;51.240;6.794;2023-03-23T10:51:43;3.80;;;1.37;;
5569;SDS011;2808;51.240;6.794;2023-03-23T10:54:32;6.90;;;1.43;;
5569;SDS011;2808;51.240;6.794;2023-03-23T10:57:31;8.73;;;2.97;;
5569;SDS011;2808;51.240;6.794;2023-03-23T11:00:00;4.80;;;2.37;;
5569;SDS011;2808;51.240;6.794;2023-03-23T11:02:46;9.97;;;2.37;;
5569;SDS011;2808;51.240;6.794;2023-03-23T11:05:41;8.37;;;3.23;;
5569;SDS011;2808;51.240;6.794;2023-03-23T11:08:20;6.30;;;2.00;;
5569;SDS011;2808;51.240;6.794;2023-03-23T11:10:55;3.93;;;1.30;;
5569;SDS011;2808;51.240;6.794;2023-03-23T11:13:29;7.50;;;1.60;;
5569;SDS011;2808;51.240;6.794;2023-03-23T11:16:08;5.60;;;1.50;;
5569;SDS011;2808;51.240;6.794;2023-03-23T11:21:39;6.83;;;1.50;;
5569;SDS011;2808;51.240;6.794;2023-03-23T11:24:40;4.97;;;1.33;;
5569;SDS011;2808;51.240;6.794;2023-03-23T11:28:19;8.70;;;1.70;;
5569;SDS011;2808;51.240;6.794;2023-03-23T11:41:37;6.53;;;1.50;;
5569;SDS011;2808;51.240;6.794;2023-03-23T11:44:53;8.13;;;1.90;;
5569;SDS011;2808;51.240;6.794;2023-03-23T11:47:43;6.30;;;1.80;;
5569;SDS011;2808;51.240;6.794;2023-03-23T11:50:35;5.43;;;1.60;;
5569;SDS011;2808;51.240;6.794;2023-03-23T11:53:08;6.40;;;1.80;;
5569;SDS011;2808;51.240;6.794;2023-03-23T13:09:58;5.43;;;3.20;;
5569;SDS011;2808;51.240;6.794;2023-03-23T13:12:57;7.73;;;3.07;;
5569;SDS011;2808;51.240;6.794;2023-03-23T13:15:37;6.03;;;2.97;;
5569;SDS011;2808;51.240;6.794;2023-03-23T13:18:19;6.30;;;3.13;;
5569;SDS011;2808;51.240;6.794;2023-03-23T13:21:19;6.37;;;2.90;;
5569;SDS011;2808;51.240;6.794;2023-03-23T13:23:55;8.40;;;3.27;;
5569;SDS011;2808;51.240;6.794;2023-03-23T13:26:28;6.83;;;3.10;;
5569;SDS011;2808;51.240;6.794;2023-03-23T13:29:18;7.43;;;3.33;;
5569;SDS011;2808;51.240;6.794;2023-03-23T13:36:04;8.37;;;2.70;;
5569;SDS011;2808;51.240;6.794;2023-03-23T13:39:17;5.93;;;3.00;;
5569;SDS011;2808;51.240;6.794;2023-03-23T13:42:02;11.00;;;3.20;;
5569;SDS011;2808;51.240;6.794;2023-03-23T13:44:55;7.17;;;3.20;;
5569;SDS011;2808;51.240;6.794;2023-03-23T13:47:43;6.47;;;3.40;;
5569;SDS011;2808;51.240;6.794;2023-03-23T13:50:24;6.57;;;2.80;;
5569;SDS011;2808;51.240;6.794;2023-03-23T13:52:57;7.93;;;3.10;;
5569;SDS011;2808;51.240;6.794;2023-03-23T13:55:31;7.17;;;3.40;;
5569;SDS011;2808;51.240;6.794;2023-03-23T13:58:21;13.30;;;5.00;;
5569;SDS011;2808;51.240;6.794;2023-03-23T14:01:10;9.57;;;5.17;;
5569;SDS011;2808;51.240;6.794;2023-03-23T14:03:41;11.90;;;4.87;;
5569;SDS011;2808;51.240;6.794;2023-03-23T14:06:32;10.50;;;4.80;;
5569;SDS011;2808;51.240;6.794;2023-03-23T14:09:18;11.33;;;4.50;;
5569;SDS011;2808;51.240;6.794;2023-03-23T14:14:56;7.30;;;3.73;;
5569;SDS011;2808;51.240;6.794;2023-03-23T14:27:15;8.90;;;2.67;;
5569;SDS011;2808;51.240;6.794;2023-03-23T14:33:49;9.60;;;2.33;;
5569;SDS011;2808;51.240;6.794;2023-03-23T14:36:22;6.70;;;1.90;;
5569;SDS011;2808;51.240;6.794;2023-03-23T14:39:15;5.10;;;1.60;;
5569;SDS011;2808;51.240;6.794;2023-03-23T14:45:00;6.80;;;1.80;;
5569;SDS011;2808;51.240;6.794;2023-03-23T14:48:43;7.57;;;2.10;;
5569;SDS011;2808;51.240;6.794;2023-03-23T14:57:43;9.40;;;1.90;;
5569;SDS011;2808;51.240;6.794;2023-03-23T15:00:12;5.63;;;2.17;;
5569;SDS011;2808;51.240;6.794;2023-03-23T15:02:56;9.67;;;2.30;;
5569;SDS011;2808;51.240;6.794;2023-03-23T15:05:28;8.77;;;2.43;;
5569;SDS011;2808;51.240;6.794;2023-03-23T15:08:03;7.10;;;2.50;;
5569;SDS011;2808;51.240;6.794;2023-03-23T15:10:34;8.07;;;2.50;;
5569;SDS011;2808;51.240;6.794;2023-03-23T15:13:05;8.23;;;2.60;;
5569;SDS011;2808;51.240;6.794;2023-03-23T15:15:38;6.80;;;2.37;;
5569;SDS011;2808;51.240;6.794;2023-03-23T15:18:17;9.80;;;2.40;;
5569;SDS011;2808;51.240;6.794;2023-03-23T15:20:56;8.00;;;2.23;;
5569;SDS011;2808;51.240;6.794;2023-03-23T15:23:28;10.33;;;2.47;;
5569;SDS011;2808;51.240;6.794;2023-03-23T15:25:56;9.63;;;2.30;;
5569;SDS011;2808;51.240;6.794;2023-03-23T15:28:30;7.20;;;1.93;;
5569;SDS011;2808;51.240;6.794;2023-03-23T15:31:00;14.10;;;2.70;;
5569;SDS011;2808;51.240;6.794;2023-03-23T15:33:35;7.33;;;2.30;;
5569;SDS011;2808;51.240;6.794;2023-03-23T15:36:06;7.43;;;2.40;;
5569;SDS011;2808;51.240;6.794;2023-03-23T15:38:55;5.47;;;2.03;;
5569;SDS011;2808;51.240;6.794;2023-03-23T15:41:25;7.23;;;2.10;;
5569;SDS011;2808;51.240;6.794;2023-03-23T15:43:55;6.10;;;2.10;;
5569;SDS011;2808;51.240;6.794;2023-03-23T15:46:24;7.60;;;2.40;;
5569;SDS011;2808;51.240;6.794;2023-03-23T15:49:04;8.83;;;2.20;;
5569;SDS011;2808;51.240;6.794;2023-03-23T15:51:38;5.73;;;2.37;;
5569;SDS011;2808;51.240;6.794;2023-03-23T15:54:14;14.33;;;2.63;;
5569;SDS011;2808;51.240;6.794;2023-03-23T15:56:50;9.20;;;2.60;;
5569;SDS011;2808;51.240;6.794;2023-03-23T15:59:17;13.73;;;2.63;;
5569;SDS011;2808;51.240;6.794;2023-03-23T16:01:54;7.97;;;2.50;;
5569;SDS011;2808;51.240;6.794;2023-03-23T16:04:23;6.93;;;2.57;;
5569;SDS011;2808;51.240;6.794;2023-03-23T16:06:58;8.97;;;2.93;;
5569;SDS011;2808;51.240;6.794;2023-03-23T16:09:34;9.27;;;3.10;;
5569;SDS011;2808;51.240;6.794;2023-03-23T16:12:08;8.83;;;2.70;;
5569;SDS011;2808;51.240;6.794;2023-03-23T16:14:40;7.60;;;2.70;;
5569;SDS011;2808;51.240;6.794;2023-03-23T16:17:11;11.07;;;2.90;;
5569;SDS011;2808;51.240;6.794;2023-03-23T16:19:47;11.87;;;2.80;;
5569;SDS011;2808;51.240;6.794;2023-03-23T16:22:20;8.50;;;2.73;;
5569;SDS011;2808;51.240;6.794;2023-03-23T16:24:59;7.20;;;2.53;;
5569;SDS011;2808;51.240;6.794;2023-03-23T16:27:33;7.57;;;2.70;;
5569;SDS011;2808;51.240;6.794;2023-03-23T16:32:49;6.90;;;2.57;;
5569;SDS011;2808;51.240;6.794;2023-03-23T16:35:17;9.57;;;2.50;;
5569;SDS011;2808;51.240;6.794;2023-03-23T16:37:51;10.40;;;3.40;;
5569;SDS011;2808;51.240;6.794;2023-03-23T16:43:30;12.80;;;3.00;;
5569;SDS011;2808;51.240;6.794;2023-03-23T16:46:02;11.57;;;3.37;;
5569;SDS011;2808;51.240;6.794;2023-03-23T16:48:37;7.50;;;3.10;;
5569;SDS011;2808;51.240;6.794;2023-03-23T16:51:24;7.73;;;2.30;;
5569;SDS011;2808;51.240;6.794;2023-03-23T16:53:59;12.97;;;2.27;;
5569;SDS011;2808;51.240;6.794;2023-03-23T16:56:32;7.70;;;2.57;;
5569;SDS011;2808;51.240;6.794;2023-03-23T16:59:00;11.63;;;2.77;;
5569;SDS011;2808;51.240;6.794;2023-03-23T17:01:46;6.90;;;2.43;;
5569;SDS011;2808;51.240;6.794;2023-03-23T17:04:51;9.50;;;3.57;;
5569;SDS011;2808;51.240;6.794;2023-03-23T17:07:53;6.90;;;2.50;;
5569;SDS011;2808;51.240;6.794;2023-03-23T17:10:47;11.80;;;2.27;;
5569;SDS011;2808;51.240;6.794;2023-03-23T17:13:24;6.90;;;2.30;;
5569;SDS011;2808;51.240;6.794;2023-03-23T17:16:04;9.50;;;2.37;;
5569;SDS011;2808;51.240;6.794;2023-03-23T17:18:32;10.67;;;2.63;;
5569;SDS011;2808;51.240;6.794;2023-03-23T17:21:04;7.77;;;2.37;;
5569;SDS011;2808;51.240;6.794;2023-03-23T17:23:49;13.70;;;4.57;;
5569;SDS011;2808;51.240;6.794;2023-03-23T17:26:18;10.43;;;3.03;;
5569;SDS011;2808;51.240;6.794;2023-03-23T17:29:00;7.13;;;2.93;;
5569;SDS011;2808;51.240;6.794;2023-03-23T17:31:34;15.53;;;2.57;;
5569;SDS011;2808;51.240;6.794;2023-03-23T17:34:04;10.13;;;3.27;;
5569;SDS011;2808;51.240;6.794;2023-03-23T17:36:33;14.20;;;2.97;;
5569;SDS011;2808;51.240;6.794;2023-03-23T17:39:16;9.17;;;2.60;;
5569;SDS011;2808;51.240;6.794;2023-03-23T17:41:47;11.77;;;2.77;;
5569;SDS011;2808;51.240;6.794;2023-03-23T17:44:20;9.60;;;2.30;;
5569;SDS011;2808;51.240;6.794;2023-03-23T17:47:18;8.07;;;2.03;;
5569;SDS011;2808;51.240;6.794;2023-03-23T17:49:47;12.23;;;4.60;;
5569;SDS011;2808;51.240;6.794;2023-03-23T17:52:18;15.40;;;5.03;;
5569;SDS011;2808;51.240;6.794;2023-03-23T18:55:51;21.10;;;3.90;;
5569;SDS011;2808;51.240;6.794;2023-03-23T19:22:34;11.67;;;3.00;;
5569;SDS011;2808;51.240;6.794;2023-03-23T19:25:05;13.50;;;3.40;;
5569;SDS011;2808;51.240;6.794;2023-03-23T19:27:40;8.33;;;2.63;;
5569;SDS011;2808;51.240;6.794;2023-03-23T19:30:08;7.00;;;2.63;;
5569;SDS011;2808;51.240;6.794;2023-03-23T19:32:39;8.77;;;2.83;;
5569;SDS011;2808;51.240;6.794;2023-03-23T19:35:10;11.30;;;3.10;;
5569;SDS011;2808;51.240;6.794;2023-03-23T19:37:39;8.07;;;2.53;;
5569;SDS011;2808;51.240;6.794;2023-03-23T19:40:07;10.83;;;3.10;;
5569;SDS011;2808;51.240;6.794;2023-03-23T19:42:35;8.67;;;2.43;;
5569;SDS011;2808;51.240;6.794;2023-03-23T19:45:08;10.90;;;3.10;;
5569;SDS011;2808;51.240;6.794;2023-03-23T19:47:40;12.53;;;3.50;;
5569;SDS011;2808;51.240;6.794;2023-03-23T19:50:07;10.47;;;3.30;;
5569;SDS011;2808;51.240;6.794;2023-03-23T19:52:35;9.77;;;2.97;;
5569;SDS011;2808;51.240;6.794;2023-03-23T19:55:05;8.90;;;3.10;;